sensor_id;sensor_type;location;lat;lon;timestamp;temperature;humidity
22940;DHT22;11636;52.086;5.090;2024-01-30T00:00:39;7.30;99.90
22940;DHT22;11636;52.086;5.090;2024-01-30T00:03:06;7.30;99.90
22940;DHT22;11636;52.086;5.090;2024-01-30T00:05:40;7.30;99.90
22940;DHT22;11636;52.086;5.090;2024-01-30T00:08:07;7.30;99.90
22940;DHT22;11636;52.086;5.090;2024-01-30T00:10:40;7.40;99.90
22940;DHT22;11636;52.086;5.090;2024-01-30T00:13:07;7.40;99.90
22940;DHT22;11636;52.086;5.090;2024-01-30T00:15:34;7.40;99.90
22940;DHT22;11636;52.086;5.090;2024-01-30T00:18:08;7.40;99.90
22940;DHT22;11636;52.086;5.090;2024-01-30T00:20:42;7.40;99.90
22940;DHT22;11636;52.086;5.090;2024-01-30T00:23:09;7.50;99.90
22940;DHT22;11636;52.086;5.090;2024-01-30T00:25:42;7.50;99.90
22940;DHT22;11636;52.086;5.090;2024-01-30T00:28:09;7.50;99.90
22940;DHT22;11636;52.086;5.090;2024-01-30T00:30:42;7.50;99.90
22940;DHT22;11636;52.086;5.090;2024-01-30T00:33:09;7.50;99.90
22940;DHT22;11636;52.086;5.090;2024-01-30T00:35:36;7.50;99.90
22940;DHT22;11636;52.086;5.090;2024-01-30T00:38:09;7.50;99.90
22940;DHT22;11636;52.086;5.090;2024-01-30T00:40:36;7.50;99.90
22940;DHT22;11636;52.086;5.090;2024-01-30T00:43:09;7.50;99.90
22940;DHT22;11636;52.086;5.090;2024-01-30T00:45:43;7.50;99.90
22940;DHT22;11636;52.086;5.090;2024-01-30T00:48:18;7.50;99.90
22940;DHT22;11636;52.086;5.090;2024-01-30T00:50:45;7.50;99.90
22940;DHT22;11636;52.086;5.090;2024-01-30T00:53:18;7.40;99.90
22940;DHT22;11636;52.086;5.090;2024-01-30T00:55:51;7.40;99.90
22940;DHT22;11636;52.086;5.090;2024-01-30T00:58:19;7.40;99.90
22940;DHT22;11636;52.086;5.090;2024-01-30T01:00:46;7.40;99.90
22940;DHT22;11636;52.086;5.090;2024-01-30T01:03:19;7.40;99.90
22940;DHT22;11636;52.086;5.090;2024-01-30T01:05:46;7.50;99.90
22940;DHT22;11636;52.086;5.090;2024-01-30T01:08:19;7.50;99.90
22940;DHT22;11636;52.086;5.090;2024-01-30T01:10:46;7.40;99.90
22940;DHT22;11636;52.086;5.090;2024-01-30T01:13:21;7.40;99.90
22940;DHT22;11636;52.086;5.090;2024-01-30T01:15:54;7.40;99.90
22940;DHT22;11636;52.086;5.090;2024-01-30T01:18:21;7.40;99.90
22940;DHT22;11636;52.086;5.090;2024-01-30T01:20:54;7.40;99.90
22940;DHT22;11636;52.086;5.090;2024-01-30T01:23:21;7.30;99.90
22940;DHT22;11636;52.086;5.090;2024-01-30T01:25:54;7.30;99.90
22940;DHT22;11636;52.086;5.090;2024-01-30T01:28:26;7.30;99.90
22940;DHT22;11636;52.086;5.090;2024-01-30T01:31:00;7.30;99.90
22940;DHT22;11636;52.086;5.090;2024-01-30T01:33:32;7.30;99.90
22940;DHT22;11636;52.086;5.090;2024-01-30T01:36:06;7.30;99.90
22940;DHT22;11636;52.086;5.090;2024-01-30T01:38:33;7.30;99.90
22940;DHT22;11636;52.086;5.090;2024-01-30T01:41:13;7.20;99.90
22940;DHT22;11636;52.086;5.090;2024-01-30T01:43:40;7.20;99.90
22940;DHT22;11636;52.086;5.090;2024-01-30T01:46:08;7.20;99.90
22940;DHT22;11636;52.086;5.090;2024-01-30T01:48:42;7.20;99.90
22940;DHT22;11636;52.086;5.090;2024-01-30T01:51:10;7.10;99.90
22940;DHT22;11636;52.086;5.090;2024-01-30T01:53:44;7.10;99.90
22940;DHT22;11636;52.086;5.090;2024-01-30T01:56:12;7.10;99.90
22940;DHT22;11636;52.086;5.090;2024-01-30T01:58:46;7.10;99.90
22940;DHT22;11636;52.086;5.090;2024-01-30T02:01:14;7.10;99.90
22940;DHT22;11636;52.086;5.090;2024-01-30T02:03:43;7.10;99.90
22940;DHT22;11636;52.086;5.090;2024-01-30T02:06:17;7.10;99.90
22940;DHT22;11636;52.086;5.090;2024-01-30T02:08:44;7.10;99.90
22940;DHT22;11636;52.086;5.090;2024-01-30T02:11:18;7.20;99.90
22940;DHT22;11636;52.086;5.090;2024-01-30T02:13:46;7.30;99.90
22940;DHT22;11636;52.086;5.090;2024-01-30T02:16:13;7.30;99.90
22940;DHT22;11636;52.086;5.090;2024-01-30T02:18:46;7.30;99.90
22940;DHT22;11636;52.086;5.090;2024-01-30T02:21:21;7.30;99.90
22940;DHT22;11636;52.086;5.090;2024-01-30T02:23:48;7.30;99.90
22940;DHT22;11636;52.086;5.090;2024-01-30T02:26:16;7.30;99.90
22940;DHT22;11636;52.086;5.090;2024-01-30T02:28:49;7.30;99.90
22940;DHT22;11636;52.086;5.090;2024-01-30T02:31:17;7.40;99.90
22940;DHT22;11636;52.086;5.090;2024-01-30T02:33:50;7.40;99.90
22940;DHT22;11636;52.086;5.090;2024-01-30T02:36:17;7.40;99.90
22940;DHT22;11636;52.086;5.090;2024-01-30T02:38:51;7.40;99.90
22940;DHT22;11636;52.086;5.090;2024-01-30T02:41:18;7.50;99.90
22940;DHT22;11636;52.086;5.090;2024-01-30T02:43:51;7.50;99.90
22940;DHT22;11636;52.086;5.090;2024-01-30T02:46:18;7.50;99.90
22940;DHT22;11636;52.086;5.090;2024-01-30T02:48:51;7.50;99.90
22940;DHT22;11636;52.086;5.090;2024-01-30T02:51:18;7.40;99.90
22940;DHT22;11636;52.086;5.090;2024-01-30T02:53:51;7.40;99.90
22940;DHT22;11636;52.086;5.090;2024-01-30T02:56:24;7.40;99.90
22940;DHT22;11636;52.086;5.090;2024-01-30T02:58:57;7.30;99.90
22940;DHT22;11636;52.086;5.090;2024-01-30T03:01:24;7.30;99.90
22940;DHT22;11636;52.086;5.090;2024-01-30T03:03:57;7.30;99.90
22940;DHT22;11636;52.086;5.090;2024-01-30T03:06:25;7.30;99.90
22940;DHT22;11636;52.086;5.090;2024-01-30T03:08:51;7.30;99.90
22940;DHT22;11636;52.086;5.090;2024-01-30T03:11:24;7.30;99.90
22940;DHT22;11636;52.086;5.090;2024-01-30T03:13:52;7.40;99.90
22940;DHT22;11636;52.086;5.090;2024-01-30T03:16:25;7.40;99.90
22940;DHT22;11636;52.086;5.090;2024-01-30T03:18:52;7.40;99.90
22940;DHT22;11636;52.086;5.090;2024-01-30T03:21:19;7.40;99.90
22940;DHT22;11636;52.086;5.090;2024-01-30T03:23:52;7.50;99.90
22940;DHT22;11636;52.086;5.090;2024-01-30T03:26:20;7.50;99.90
22940;DHT22;11636;52.086;5.090;2024-01-30T03:28:46;7.50;99.90
22940;DHT22;11636;52.086;5.090;2024-01-30T03:31:19;7.50;99.90
22940;DHT22;11636;52.086;5.090;2024-01-30T03:33:52;7.50;99.90
22940;DHT22;11636;52.086;5.090;2024-01-30T03:36:20;7.40;99.90
22940;DHT22;11636;52.086;5.090;2024-01-30T03:38:47;7.50;99.90
22940;DHT22;11636;52.086;5.090;2024-01-30T03:41:19;7.50;99.90
22940;DHT22;11636;52.086;5.090;2024-01-30T03:43:53;7.40;99.90
22940;DHT22;11636;52.086;5.090;2024-01-30T03:46:26;7.50;99.90
22940;DHT22;11636;52.086;5.090;2024-01-30T03:48:53;7.50;99.90
22940;DHT22;11636;52.086;5.090;2024-01-30T03:51:26;7.50;99.90
22940;DHT22;11636;52.086;5.090;2024-01-30T03:53:53;7.50;99.90
22940;DHT22;11636;52.086;5.090;2024-01-30T03:56:26;7.50;99.90
22940;DHT22;11636;52.086;5.090;2024-01-30T03:58:53;7.60;99.90
22940;DHT22;11636;52.086;5.090;2024-01-30T04:01:26;7.60;99.90
22940;DHT22;11636;52.086;5.090;2024-01-30T04:03:53;7.60;99.90
22940;DHT22;11636;52.086;5.090;2024-01-30T04:06:20;7.60;99.90
22940;DHT22;11636;52.086;5.090;2024-01-30T04:08:53;7.70;99.90
22940;DHT22;11636;52.086;5.090;2024-01-30T04:11:26;7.70;99.90
22940;DHT22;11636;52.086;5.090;2024-01-30T04:13:53;7.70;99.90
22940;DHT22;11636;52.086;5.090;2024-01-30T04:16:21;7.70;99.90
22940;DHT22;11636;52.086;5.090;2024-01-30T04:18:55;7.70;99.90
22940;DHT22;11636;52.086;5.090;2024-01-30T04:21:22;7.80;99.90
22940;DHT22;11636;52.086;5.090;2024-01-30T04:23:55;7.80;99.90
22940;DHT22;11636;52.086;5.090;2024-01-30T04:26:24;7.80;99.90
22940;DHT22;11636;52.086;5.090;2024-01-30T04:28:58;7.80;99.90
22940;DHT22;11636;52.086;5.090;2024-01-30T04:31:24;7.80;99.90
22940;DHT22;11636;52.086;5.090;2024-01-30T04:33:51;7.80;99.90
22940;DHT22;11636;52.086;5.090;2024-01-30T04:36:25;7.80;99.90
22940;DHT22;11636;52.086;5.090;2024-01-30T04:38:51;7.90;99.90
22940;DHT22;11636;52.086;5.090;2024-01-30T04:41:24;7.80;99.90
22940;DHT22;11636;52.086;5.090;2024-01-30T04:43:52;7.90;99.90
22940;DHT22;11636;52.086;5.090;2024-01-30T04:46:25;7.90;99.90
22940;DHT22;11636;52.086;5.090;2024-01-30T04:48:52;8.00;99.90
22940;DHT22;11636;52.086;5.090;2024-01-30T04:51:19;8.00;99.90
22940;DHT22;11636;52.086;5.090;2024-01-30T04:53:52;8.00;99.90
22940;DHT22;11636;52.086;5.090;2024-01-30T04:56:25;8.00;99.90
22940;DHT22;11636;52.086;5.090;2024-01-30T04:58:52;8.10;99.90
22940;DHT22;11636;52.086;5.090;2024-01-30T05:01:25;8.00;99.90
22940;DHT22;11636;52.086;5.090;2024-01-30T05:03:59;8.10;99.90
22940;DHT22;11636;52.086;5.090;2024-01-30T05:06:26;8.10;99.90
22940;DHT22;11636;52.086;5.090;2024-01-30T05:09:00;8.10;99.90
22940;DHT22;11636;52.086;5.090;2024-01-30T05:11:26;8.20;99.90
22940;DHT22;11636;52.086;5.090;2024-01-30T05:14:00;8.20;99.90
22940;DHT22;11636;52.086;5.090;2024-01-30T05:16:26;8.20;99.90
22940;DHT22;11636;52.086;5.090;2024-01-30T05:19:00;8.20;99.90
22940;DHT22;11636;52.086;5.090;2024-01-30T05:21:34;8.20;99.90
22940;DHT22;11636;52.086;5.090;2024-01-30T05:24:01;8.20;99.90
22940;DHT22;11636;52.086;5.090;2024-01-30T05:26:28;8.20;99.90
22940;DHT22;11636;52.086;5.090;2024-01-30T05:29:02;8.20;99.90
22940;DHT22;11636;52.086;5.090;2024-01-30T05:31:36;8.20;99.90
22940;DHT22;11636;52.086;5.090;2024-01-30T05:34:02;8.20;99.90
22940;DHT22;11636;52.086;5.090;2024-01-30T05:36:36;8.20;99.90
22940;DHT22;11636;52.086;5.090;2024-01-30T05:39:09;8.30;99.90
22940;DHT22;11636;52.086;5.090;2024-01-30T05:41:36;8.30;99.90
22940;DHT22;11636;52.086;5.090;2024-01-30T05:44:03;8.30;99.90
22940;DHT22;11636;52.086;5.090;2024-01-30T05:46:37;8.30;99.90
22940;DHT22;11636;52.086;5.090;2024-01-30T05:49:04;8.30;99.90
22940;DHT22;11636;52.086;5.090;2024-01-30T05:51:37;8.30;99.90
22940;DHT22;11636;52.086;5.090;2024-01-30T05:54:04;8.40;99.90
22940;DHT22;11636;52.086;5.090;2024-01-30T05:56:41;8.40;99.90
22940;DHT22;11636;52.086;5.090;2024-01-30T05:59:08;8.40;99.90
22940;DHT22;11636;52.086;5.090;2024-01-30T06:01:48;8.40;99.90
22940;DHT22;11636;52.086;5.090;2024-01-30T06:04:22;8.40;99.90
22940;DHT22;11636;52.086;5.090;2024-01-30T06:06:49;8.50;99.90
22940;DHT22;11636;52.086;5.090;2024-01-30T06:09:22;8.50;99.90
22940;DHT22;11636;52.086;5.090;2024-01-30T06:11:48;8.60;99.90
22940;DHT22;11636;52.086;5.090;2024-01-30T06:14:22;8.60;99.90
22940;DHT22;11636;52.086;5.090;2024-01-30T06:16:49;8.60;99.90
22940;DHT22;11636;52.086;5.090;2024-01-30T06:19:23;8.60;99.90
22940;DHT22;11636;52.086;5.090;2024-01-30T06:21:50;8.60;99.90
22940;DHT22;11636;52.086;5.090;2024-01-30T06:24:23;8.60;99.90
22940;DHT22;11636;52.086;5.090;2024-01-30T06:26:49;8.60;99.90
22940;DHT22;11636;52.086;5.090;2024-01-30T06:29:16;8.70;99.90
22940;DHT22;11636;52.086;5.090;2024-01-30T06:31:50;8.70;99.90
22940;DHT22;11636;52.086;5.090;2024-01-30T06:34:17;8.70;99.90
22940;DHT22;11636;52.086;5.090;2024-01-30T06:36:44;8.80;99.90
22940;DHT22;11636;52.086;5.090;2024-01-30T06:39:17;8.80;99.90
22940;DHT22;11636;52.086;5.090;2024-01-30T06:41:50;8.80;99.90
22940;DHT22;11636;52.086;5.090;2024-01-30T06:44:16;8.80;99.90
22940;DHT22;11636;52.086;5.090;2024-01-30T06:46:50;8.70;99.90
22940;DHT22;11636;52.086;5.090;2024-01-30T06:49:16;8.70;99.90
22940;DHT22;11636;52.086;5.090;2024-01-30T06:51:43;8.70;99.90
22940;DHT22;11636;52.086;5.090;2024-01-30T06:54:17;8.70;99.90
22940;DHT22;11636;52.086;5.090;2024-01-30T06:56:50;8.70;99.90
22940;DHT22;11636;52.086;5.090;2024-01-30T06:59:24;8.70;99.90
22940;DHT22;11636;52.086;5.090;2024-01-30T07:01:51;8.70;99.90
22940;DHT22;11636;52.086;5.090;2024-01-30T07:04:18;8.80;99.90
22940;DHT22;11636;52.086;5.090;2024-01-30T07:06:51;8.80;99.90
22940;DHT22;11636;52.086;5.090;2024-01-30T07:09:26;8.80;99.90
22940;DHT22;11636;52.086;5.090;2024-01-30T07:11:53;8.80;99.90
22940;DHT22;11636;52.086;5.090;2024-01-30T07:14:22;8.80;99.90
22940;DHT22;11636;52.086;5.090;2024-01-30T07:16:55;8.80;99.90
22940;DHT22;11636;52.086;5.090;2024-01-30T07:19:28;8.80;99.90
22940;DHT22;11636;52.086;5.090;2024-01-30T07:21:55;8.80;99.90
22940;DHT22;11636;52.086;5.090;2024-01-30T07:24:22;8.70;99.90
22940;DHT22;11636;52.086;5.090;2024-01-30T07:26:55;8.70;99.90
22940;DHT22;11636;52.086;5.090;2024-01-30T07:29:22;8.80;99.90
22940;DHT22;11636;52.086;5.090;2024-01-30T07:31:55;8.80;99.90
22940;DHT22;11636;52.086;5.090;2024-01-30T07:34:28;8.90;99.90
22940;DHT22;11636;52.086;5.090;2024-01-30T07:37:15;8.90;99.90
22940;DHT22;11636;52.086;5.090;2024-01-30T07:39:42;8.90;99.90
22940;DHT22;11636;52.086;5.090;2024-01-30T07:42:16;9.00;99.90
22940;DHT22;11636;52.086;5.090;2024-01-30T07:44:44;9.00;99.90
22940;DHT22;11636;52.086;5.090;2024-01-30T07:47:17;9.00;99.90
22940;DHT22;11636;52.086;5.090;2024-01-30T07:49:44;9.00;99.90
22940;DHT22;11636;52.086;5.090;2024-01-30T07:52:11;9.10;99.90
22940;DHT22;11636;52.086;5.090;2024-01-30T07:54:45;9.10;99.90
22940;DHT22;11636;52.086;5.090;2024-01-30T07:57:12;9.10;99.90
22940;DHT22;11636;52.086;5.090;2024-01-30T07:59:45;9.20;99.90
22940;DHT22;11636;52.086;5.090;2024-01-30T08:02:13;9.20;99.90
22940;DHT22;11636;52.086;5.090;2024-01-30T08:04:52;9.30;99.90
22940;DHT22;11636;52.086;5.090;2024-01-30T08:07:21;9.30;99.90
22940;DHT22;11636;52.086;5.090;2024-01-30T08:09:55;9.30;99.90
22940;DHT22;11636;52.086;5.090;2024-01-30T08:12:22;9.30;99.90
22940;DHT22;11636;52.086;5.090;2024-01-30T08:14:48;9.40;99.90
22940;DHT22;11636;52.086;5.090;2024-01-30T08:17:22;9.40;99.90
22940;DHT22;11636;52.086;5.090;2024-01-30T08:19:49;9.50;99.90
22940;DHT22;11636;52.086;5.090;2024-01-30T08:22:22;9.50;99.90
22940;DHT22;11636;52.086;5.090;2024-01-30T08:24:49;9.50;99.90
22940;DHT22;11636;52.086;5.090;2024-01-30T08:27:23;9.60;99.90
22940;DHT22;11636;52.086;5.090;2024-01-30T08:29:50;9.60;99.90
22940;DHT22;11636;52.086;5.090;2024-01-30T08:32:17;9.60;99.90
22940;DHT22;11636;52.086;5.090;2024-01-30T08:34:50;9.70;99.90
22940;DHT22;11636;52.086;5.090;2024-01-30T08:37:17;9.70;99.90
22940;DHT22;11636;52.086;5.090;2024-01-30T08:39:51;9.70;99.90
22940;DHT22;11636;52.086;5.090;2024-01-30T08:42:18;9.80;99.90
22940;DHT22;11636;52.086;5.090;2024-01-30T08:44:55;9.90;99.90
22940;DHT22;11636;52.086;5.090;2024-01-30T08:47:22;10.00;99.90
22940;DHT22;11636;52.086;5.090;2024-01-30T08:49:49;10.10;99.90
22940;DHT22;11636;52.086;5.090;2024-01-30T08:52:23;10.10;99.90
22940;DHT22;11636;52.086;5.090;2024-01-30T08:54:50;10.20;99.90
22940;DHT22;11636;52.086;5.090;2024-01-30T08:57:17;10.20;99.90
22940;DHT22;11636;52.086;5.090;2024-01-30T08:59:50;10.10;99.90
22940;DHT22;11636;52.086;5.090;2024-01-30T09:02:17;10.10;99.90
22940;DHT22;11636;52.086;5.090;2024-01-30T09:04:51;10.10;99.90
22940;DHT22;11636;52.086;5.090;2024-01-30T09:07:18;10.20;99.90
22940;DHT22;11636;52.086;5.090;2024-01-30T09:09:45;10.20;99.90
22940;DHT22;11636;52.086;5.090;2024-01-30T09:12:18;10.20;99.90
22940;DHT22;11636;52.086;5.090;2024-01-30T09:14:45;10.20;99.90
22940;DHT22;11636;52.086;5.090;2024-01-30T09:17:19;10.20;99.90
22940;DHT22;11636;52.086;5.090;2024-01-30T09:19:46;10.20;99.90
22940;DHT22;11636;52.086;5.090;2024-01-30T09:22:19;10.20;99.90
22940;DHT22;11636;52.086;5.090;2024-01-30T09:24:46;10.20;99.90
22940;DHT22;11636;52.086;5.090;2024-01-30T09:27:19;10.30;99.90
22940;DHT22;11636;52.086;5.090;2024-01-30T09:29:53;10.30;99.90
22940;DHT22;11636;52.086;5.090;2024-01-30T09:32:26;10.40;99.90
22940;DHT22;11636;52.086;5.090;2024-01-30T09:34:59;10.50;99.90
22940;DHT22;11636;52.086;5.090;2024-01-30T09:37:26;10.50;99.90
22940;DHT22;11636;52.086;5.090;2024-01-30T09:39:59;10.60;99.90
22940;DHT22;11636;52.086;5.090;2024-01-30T09:42:36;10.60;99.90
22940;DHT22;11636;52.086;5.090;2024-01-30T09:45:10;10.70;99.90
22940;DHT22;11636;52.086;5.090;2024-01-30T09:47:44;10.80;99.90
22940;DHT22;11636;52.086;5.090;2024-01-30T09:50:18;10.80;99.90
22940;DHT22;11636;52.086;5.090;2024-01-30T09:52:46;10.80;99.90
22940;DHT22;11636;52.086;5.090;2024-01-30T09:55:20;10.90;99.90
22940;DHT22;11636;52.086;5.090;2024-01-30T09:57:53;11.00;99.90
22940;DHT22;11636;52.086;5.090;2024-01-30T10:00:21;11.00;99.90
22940;DHT22;11636;52.086;5.090;2024-01-30T10:02:59;11.10;99.90
22940;DHT22;11636;52.086;5.090;2024-01-30T10:05:31;11.20;99.90
22940;DHT22;11636;52.086;5.090;2024-01-30T10:08:08;11.30;99.90
22940;DHT22;11636;52.086;5.090;2024-01-30T10:10:41;11.30;99.90
22940;DHT22;11636;52.086;5.090;2024-01-30T10:13:08;11.30;99.90
22940;DHT22;11636;52.086;5.090;2024-01-30T10:15:43;11.30;99.90
22940;DHT22;11636;52.086;5.090;2024-01-30T10:18:18;11.40;99.90
22940;DHT22;11636;52.086;5.090;2024-01-30T10:20:45;11.50;99.90
22940;DHT22;11636;52.086;5.090;2024-01-30T10:23:19;11.50;99.90
22940;DHT22;11636;52.086;5.090;2024-01-30T10:25:46;11.50;99.90
22940;DHT22;11636;52.086;5.090;2024-01-30T10:28:20;11.40;99.90
22940;DHT22;11636;52.086;5.090;2024-01-30T10:30:58;11.30;99.90
22940;DHT22;11636;52.086;5.090;2024-01-30T10:33:33;11.30;99.90
22940;DHT22;11636;52.086;5.090;2024-01-30T10:36:06;11.30;99.90
22940;DHT22;11636;52.086;5.090;2024-01-30T10:38:33;11.30;99.90
22940;DHT22;11636;52.086;5.090;2024-01-30T10:41:08;11.20;99.90
22940;DHT22;11636;52.086;5.090;2024-01-30T10:43:50;11.20;99.90
22940;DHT22;11636;52.086;5.090;2024-01-30T10:46:31;11.20;99.90
22940;DHT22;11636;52.086;5.090;2024-01-30T10:48:59;11.20;99.90
22940;DHT22;11636;52.086;5.090;2024-01-30T10:51:34;11.10;99.90
22940;DHT22;11636;52.086;5.090;2024-01-30T10:54:03;11.10;99.90
22940;DHT22;11636;52.086;5.090;2024-01-30T10:56:39;11.20;99.90
22940;DHT22;11636;52.086;5.090;2024-01-30T10:59:06;11.10;99.90
22940;DHT22;11636;52.086;5.090;2024-01-30T11:01:37;11.20;99.90
22940;DHT22;11636;52.086;5.090;2024-01-30T11:04:10;11.30;99.90
22940;DHT22;11636;52.086;5.090;2024-01-30T11:06:41;11.30;99.90
22940;DHT22;11636;52.086;5.090;2024-01-30T11:09:17;11.30;99.90
22940;DHT22;11636;52.086;5.090;2024-01-30T11:11:51;11.40;99.90
22940;DHT22;11636;52.086;5.090;2024-01-30T11:14:25;11.30;99.90
22940;DHT22;11636;52.086;5.090;2024-01-30T11:16:59;11.30;99.90
22940;DHT22;11636;52.086;5.090;2024-01-30T11:19:33;11.20;99.90
22940;DHT22;11636;52.086;5.090;2024-01-30T11:22:01;11.10;99.90
22940;DHT22;11636;52.086;5.090;2024-01-30T11:24:28;11.00;99.90
22940;DHT22;11636;52.086;5.090;2024-01-30T11:27:03;11.00;99.90
22940;DHT22;11636;52.086;5.090;2024-01-30T11:29:40;10.80;99.90
22940;DHT22;11636;52.086;5.090;2024-01-30T11:32:07;10.80;99.90
22940;DHT22;11636;52.086;5.090;2024-01-30T11:34:41;10.80;99.90
22940;DHT22;11636;52.086;5.090;2024-01-30T11:37:10;10.80;99.90
22940;DHT22;11636;52.086;5.090;2024-01-30T11:39:46;10.90;99.90
22940;DHT22;11636;52.086;5.090;2024-01-30T11:42:13;10.90;99.90
22940;DHT22;11636;52.086;5.090;2024-01-30T11:44:41;11.00;99.90
22940;DHT22;11636;52.086;5.090;2024-01-30T11:47:16;11.00;99.90
22940;DHT22;11636;52.086;5.090;2024-01-30T11:49:43;11.00;99.90
22940;DHT22;11636;52.086;5.090;2024-01-30T11:52:16;10.90;99.90
22940;DHT22;11636;52.086;5.090;2024-01-30T11:54:50;10.70;99.90
22940;DHT22;11636;52.086;5.090;2024-01-30T11:57:17;10.60;99.90
22940;DHT22;11636;52.086;5.090;2024-01-30T11:59:52;10.50;99.90
22940;DHT22;11636;52.086;5.090;2024-01-30T12:02:40;10.40;99.90
22940;DHT22;11636;52.086;5.090;2024-01-30T12:05:13;10.30;99.90
22940;DHT22;11636;52.086;5.090;2024-01-30T12:07:46;10.10;99.90
22940;DHT22;11636;52.086;5.090;2024-01-30T12:10:14;10.00;99.90
22940;DHT22;11636;52.086;5.090;2024-01-30T12:12:49;9.90;99.90
22940;DHT22;11636;52.086;5.090;2024-01-30T12:15:24;9.90;99.90
22940;DHT22;11636;52.086;5.090;2024-01-30T12:17:51;9.80;99.90
22940;DHT22;11636;52.086;5.090;2024-01-30T12:20:24;9.90;99.90
22940;DHT22;11636;52.086;5.090;2024-01-30T12:22:57;9.90;99.90
22940;DHT22;11636;52.086;5.090;2024-01-30T12:25:31;9.90;99.90
22940;DHT22;11636;52.086;5.090;2024-01-30T12:27:59;10.00;99.90
22940;DHT22;11636;52.086;5.090;2024-01-30T12:30:26;9.90;99.90
22940;DHT22;11636;52.086;5.090;2024-01-30T12:33:01;9.90;99.90
22940;DHT22;11636;52.086;5.090;2024-01-30T12:35:31;10.00;99.90
22940;DHT22;11636;52.086;5.090;2024-01-30T12:38:18;10.00;99.90
22940;DHT22;11636;52.086;5.090;2024-01-30T12:40:45;10.10;99.90
22940;DHT22;11636;52.086;5.090;2024-01-30T12:43:19;10.10;99.90
22940;DHT22;11636;52.086;5.090;2024-01-30T12:46:04;10.10;99.90
22940;DHT22;11636;52.086;5.090;2024-01-30T12:48:31;10.20;99.90
22940;DHT22;11636;52.086;5.090;2024-01-30T12:51:05;10.10;99.90
22940;DHT22;11636;52.086;5.090;2024-01-30T12:53:31;10.10;99.90
22940;DHT22;11636;52.086;5.090;2024-01-30T12:56:05;10.00;99.90
22940;DHT22;11636;52.086;5.090;2024-01-30T12:58:32;10.00;99.90
22940;DHT22;11636;52.086;5.090;2024-01-30T13:00:59;10.00;99.90
22940;DHT22;11636;52.086;5.090;2024-01-30T13:03:32;9.90;99.90
22940;DHT22;11636;52.086;5.090;2024-01-30T13:06:01;9.90;99.90
22940;DHT22;11636;52.086;5.090;2024-01-30T13:08:34;9.90;99.90
22940;DHT22;11636;52.086;5.090;2024-01-30T13:11:01;9.90;99.90
22940;DHT22;11636;52.086;5.090;2024-01-30T13:13:28;9.90;99.90
22940;DHT22;11636;52.086;5.090;2024-01-30T13:16:01;9.90;99.90
22940;DHT22;11636;52.086;5.090;2024-01-30T13:18:28;9.80;99.90
22940;DHT22;11636;52.086;5.090;2024-01-30T13:21:01;9.70;99.90
22940;DHT22;11636;52.086;5.090;2024-01-30T13:23:35;9.60;99.90
22940;DHT22;11636;52.086;5.090;2024-01-30T13:26:08;9.50;99.90
22940;DHT22;11636;52.086;5.090;2024-01-30T13:28:35;9.50;99.90
22940;DHT22;11636;52.086;5.090;2024-01-30T13:31:09;9.40;99.90
22940;DHT22;11636;52.086;5.090;2024-01-30T13:33:36;9.40;99.90
22940;DHT22;11636;52.086;5.090;2024-01-30T13:36:11;9.40;99.90
22940;DHT22;11636;52.086;5.090;2024-01-30T13:38:38;9.40;99.90
22940;DHT22;11636;52.086;5.090;2024-01-30T13:41:12;9.30;99.90
22940;DHT22;11636;52.086;5.090;2024-01-30T13:43:39;9.30;99.90
22940;DHT22;11636;52.086;5.090;2024-01-30T13:46:06;9.30;99.90
22940;DHT22;11636;52.086;5.090;2024-01-30T13:48:40;9.30;99.90
22940;DHT22;11636;52.086;5.090;2024-01-30T13:51:14;9.30;99.90
22940;DHT22;11636;52.086;5.090;2024-01-30T13:53:47;9.30;99.90
22940;DHT22;11636;52.086;5.090;2024-01-30T13:56:22;9.30;99.90
22940;DHT22;11636;52.086;5.090;2024-01-30T13:59:03;9.20;99.90
22940;DHT22;11636;52.086;5.090;2024-01-30T14:01:32;9.20;99.90
22940;DHT22;11636;52.086;5.090;2024-01-30T14:03:59;9.10;99.90
22940;DHT22;11636;52.086;5.090;2024-01-30T14:06:37;9.00;99.90
22940;DHT22;11636;52.086;5.090;2024-01-30T14:09:22;8.90;99.90
22940;DHT22;11636;52.086;5.090;2024-01-30T14:11:55;8.90;99.90
22940;DHT22;11636;52.086;5.090;2024-01-30T14:14:22;8.80;99.90
22940;DHT22;11636;52.086;5.090;2024-01-30T14:16:55;8.80;99.90
22940;DHT22;11636;52.086;5.090;2024-01-30T14:19:22;8.70;99.90
22940;DHT22;11636;52.086;5.090;2024-01-30T14:21:56;8.70;99.90
22940;DHT22;11636;52.086;5.090;2024-01-30T14:24:22;8.50;99.90
22940;DHT22;11636;52.086;5.090;2024-01-30T14:26:56;8.50;99.90
22940;DHT22;11636;52.086;5.090;2024-01-30T14:29:22;8.40;99.90
22940;DHT22;11636;52.086;5.090;2024-01-30T14:31:49;8.40;99.90
22940;DHT22;11636;52.086;5.090;2024-01-30T14:34:22;8.30;99.90
22940;DHT22;11636;52.086;5.090;2024-01-30T14:36:56;8.30;99.90
22940;DHT22;11636;52.086;5.090;2024-01-30T14:39:23;8.20;99.90
22940;DHT22;11636;52.086;5.090;2024-01-30T14:41:50;8.20;99.90
22940;DHT22;11636;52.086;5.090;2024-01-30T14:44:23;8.20;99.90
22940;DHT22;11636;52.086;5.090;2024-01-30T14:46:56;8.20;99.90
22940;DHT22;11636;52.086;5.090;2024-01-30T14:49:23;8.20;99.90
22940;DHT22;11636;52.086;5.090;2024-01-30T14:51:50;8.10;99.90
22940;DHT22;11636;52.086;5.090;2024-01-30T14:54:24;8.10;99.90
22940;DHT22;11636;52.086;5.090;2024-01-30T14:56:58;8.10;99.90
22940;DHT22;11636;52.086;5.090;2024-01-30T14:59:26;8.20;99.90
22940;DHT22;11636;52.086;5.090;2024-01-30T15:01:53;8.10;99.90
22940;DHT22;11636;52.086;5.090;2024-01-30T15:04:26;8.10;99.90
22940;DHT22;11636;52.086;5.090;2024-01-30T15:06:53;8.10;99.90
22940;DHT22;11636;52.086;5.090;2024-01-30T15:09:26;8.10;99.90
22940;DHT22;11636;52.086;5.090;2024-01-30T15:11:56;8.10;99.90
22940;DHT22;11636;52.086;5.090;2024-01-30T15:14:23;8.10;99.90
22940;DHT22;11636;52.086;5.090;2024-01-30T15:16:57;8.10;99.90
22940;DHT22;11636;52.086;5.090;2024-01-30T15:19:31;8.10;99.90
22940;DHT22;11636;52.086;5.090;2024-01-30T15:21:58;8.00;99.90
22940;DHT22;11636;52.086;5.090;2024-01-30T15:24:25;8.00;99.90
22940;DHT22;11636;52.086;5.090;2024-01-30T15:26:58;8.00;99.90
22940;DHT22;11636;52.086;5.090;2024-01-30T15:29:25;8.00;99.90
22940;DHT22;11636;52.086;5.090;2024-01-30T15:31:58;8.00;99.90
22940;DHT22;11636;52.086;5.090;2024-01-30T15:34:25;8.00;99.90
22940;DHT22;11636;52.086;5.090;2024-01-30T15:36:59;8.00;99.90
22940;DHT22;11636;52.086;5.090;2024-01-30T15:39:26;8.00;99.90
22940;DHT22;11636;52.086;5.090;2024-01-30T15:41:55;8.00;99.90
22940;DHT22;11636;52.086;5.090;2024-01-30T15:44:29;7.90;99.90
22940;DHT22;11636;52.086;5.090;2024-01-30T15:46:57;7.90;99.90
22940;DHT22;11636;52.086;5.090;2024-01-30T15:49:31;8.00;99.90
22940;DHT22;11636;52.086;5.090;2024-01-30T15:51:58;7.90;99.90
22940;DHT22;11636;52.086;5.090;2024-01-30T15:54:31;7.90;99.90
22940;DHT22;11636;52.086;5.090;2024-01-30T15:56:58;7.90;99.90
22940;DHT22;11636;52.086;5.090;2024-01-30T15:59:25;7.90;99.90
22940;DHT22;11636;52.086;5.090;2024-01-30T16:02:00;7.90;99.90
22940;DHT22;11636;52.086;5.090;2024-01-30T16:04:26;7.90;99.90